Gordon Reid — CGBR — position and weather

sailwx.info

Track history (hours):
 
Tides and Currents Weather Stations Pressure Air Temp Water Temp Dewpoint Dewpoint Depression Visibility Wind Speed Wind Dir Waves Ship Positions

Gordon Reid

Last reported at 2014-Dec-22 09:29 UTC. Time now 2014-Dec-22 12:03 UTC.
Position N 50°55' W 127°50'.

Length 49.95 m; beam 11 m; draft 5.4 m.

Type: SAR. MMSI: 316094000.

Date/timePositionNaut miles runAvg speedWind from/ knotsBaromVisibWave heightAir tempDewpointWater temp
2014-Dec-22 09:29N 50°55' W 127°50'0 0.0
2014-Dec-22 06:29N 50°55' W 127°50'0 0.0
2014-Dec-22 04:29N 50°55' W 127°50'0 0.0
2014-Dec-22 02:26N 50°55' W 127°50'0 0.0
2014-Dec-21 17:32N 50°55' W 127°50'0 0.0
2014-Dec-21 16:26N 50°55' W 127°50'2 0.1
2014-Dec-20 21:33N 50°57' W 127°51'6 2.8
2014-Dec-20 19:25N 50°57' W 128°01'2 1.8
2014-Dec-20 18:30N 50°57' W 128°03'4 1.3
2014-Dec-20 15:33N 50°53' W 128°03'0 0.2
2014-Dec-20 14:26N 50°53' W 128°03'1 0.0
2014-Dec-19 06:18N 50°53' W 128°01'1 0.2
2014-Dec-19 03:30N 50°53' W 128°01'7 7.2
2014-Dec-19 02:33N 50°52' W 127°51'0 0.4
2014-Dec-19 01:33N 50°52' W 127°50'10 1.9
2014-Dec-18 20:10N 50°58' W 128°03'2 3.9
2014-Dec-18 19:33N 50°57' W 127°59'2 2.0
2014-Dec-18 18:32N 50°56' W 127°56'0 0.1
2014-Dec-18 17:24N 50°56' W 127°57'3 2.7
2014-Dec-18 16:27N 50°56' W 128°00'6 0.5
2014-Dec-18 04:07N 50°53' W 127°53'611.2
2014-Dec-18 03:33N 50°50' W 127°43'1010.4
2014-Dec-18 02:33N 50°46' W 127°28'2 0.3
2014-Dec-17 19:33N 50°43' W 127°29'1 0.7
2014-Dec-17 18:28N 50°43' W 127°28'0 0.0
2014-Dec-17 17:28N 50°43' W 127°28'0 0.1
2014-Dec-17 16:33N 50°43' W 127°28'9 9.1
2014-Dec-17 15:33N 50°49' W 127°38'2 1.9
2014-Dec-17 14:33N 50°51' W 127°40'0 0.0
2014-Dec-17 13:33N 50°51' W 127°40'0 0.0
2014-Dec-17 12:33N 50°51' W 127°40'0 0.0
2014-Dec-17 11:27N 50°51' W 127°40'0 0.0
2014-Dec-17 10:33N 50°51' W 127°40'0 0.0
2014-Dec-17 09:33N 50°51' W 127°40'0 0.0
2014-Dec-17 08:27N 50°51' W 127°40'0 0.0
2014-Dec-17 07:27N 50°51' W 127°40'0 0.0
2014-Dec-17 06:33N 50°51' W 127°40'0 0.0
2014-Dec-17 05:27N 50°51' W 127°40'0 0.0
2014-Dec-17 04:33N 50°51' W 127°40'0 0.0
2014-Dec-17 03:21N 50°51' W 127°40'0 0.0
2014-Dec-17 02:33N 50°51' W 127°40'0 0.0
2014-Dec-17 01:33N 50°51' W 127°40'0 0.0
2014-Dec-17 00:33N 50°51' W 127°40'0 0.0
2014-Dec-16 23:33N 50°51' W 127°40'1 1.5
2014-Dec-16 22:33N 50°53' W 127°39'9 8.9
2014-Dec-16 21:32N 51°02' W 127°37'6 6.4
2014-Dec-16 20:33N 51°05' W 127°45'9 8.2
2014-Dec-16 19:30N 51°12' W 127°54'12 0.6
2014-Dec-16 00:00N 51°24' W 127°48'0 0.0 140 / 171006.4 9.5 7.410.3
2014-Dec-15 23:00N 51°24' W 127°48'0 0.0 160 / 121006.3 10.0 6.710.1
2014-Dec-15 22:00N 51°24' W 127°48'6 6.0 150 / 151005.8 11.5 6.410.1
2014-Dec-15 21:00N 51°30' W 127°48'7 7.1 170 / 141005.8 11.4 6.8 9.4
2014-Dec-15 20:00N 51°36' W 127°54'10 9.6 170 / 31006.3 6.2 6.1 8.7
2014-Dec-15 19:00N 51°42' W 128°06'0 0.0 110 / 81006.1 7.9 5.7
2014-Dec-15 18:00N 51°42' W 128°06'0 0.0 100 / 101005.9 6.1 5.1
2014-Dec-15 17:00N 51°42' W 128°06'0 0.0 070 / 21006.0 6.0 4.0
2014-Dec-15 16:00N 51°42' W 128°06'0 0.0 030 / 31006.1 5.1 4.1
2014-Dec-15 15:00N 51°42' W 128°06'0 0.0 030 / 21006.5 4.9 4.3
2014-Dec-15 14:00N 51°42' W 128°06'0 0.0 040 / 41007.0 4.7 4.0
2014-Dec-15 13:00N 51°42' W 128°06'0 0.0 040 / 51007.4 5.2 3.9
2014-Dec-15 12:00N 51°42' W 128°06'0 0.0 020 / 51008.0 4.7 3.9
2014-Dec-15 11:00N 51°42' W 128°06'0 0.0 050 / 31008.7 5.2 4.1
2014-Dec-15 10:00N 51°42' W 128°06'0 0.0 010 / 31009.2 5.1 4.5
2014-Dec-15 09:00N 51°42' W 128°06'0 0.0 020 / 31009.7 6.0 4.9
2014-Dec-15 08:00N 51°42' W 128°06'0 0.0 100 / 101010.2 6.9 6.1
2014-Dec-15 07:00N 51°42' W 128°06'0 0.0 020 / 31010.8 6.0 5.3
2014-Dec-15 06:00N 51°42' W 128°06'0 0.0 040 / 41011.2 5.8 5.1
2014-Dec-15 05:00N 51°42' W 128°06'0 0.0 020 / 21011.3 5.4 5.0
2014-Dec-15 04:00N 51°42' W 128°06'0 0.0 010 / 51011.5 5.9 5.5
2014-Dec-15 03:00N 51°42' W 128°06'0 0.0 360 / 51011.7 5.9 5.4
2014-Dec-15 02:00N 51°42' W 128°06'0 0.0 040 / 21012.2 6.1 6.0
2014-Dec-15 01:00N 51°42' W 128°06'0 0.0 120 / 11013.0 6.2 6.1
2014-Dec-15 00:00N 51°42' W 128°06'0 0.0 350 / 21013.4 6.8 6.7 9.8
2014-Dec-14 23:00N 51°42' W 128°06'0 0.0 010 / 21014.0 7.6 7.3 9.6
2014-Dec-14 22:00N 51°42' W 128°06'4 3.7 020 / 21014.6 8.4 7.3 9.8
2014-Dec-14 21:00N 51°42' W 128°00'7 7.1 100 / 71015.6 6.8 6.4 9.3
2014-Dec-14 20:00N 51°48' W 127°54'1212.0 040 / 81016.2 7.1 5.3 8.9
2014-Dec-14 19:00N 52°00' W 127°54'10 9.5 270 / 21016.5 7.0 5.9 9.2
2014-Dec-14 18:00N 52°06' W 128°06'6 6.0 020 / 21016.7 7.0 4.3 9.0
2014-Dec-14 17:00N 52°12' W 128°06'0 0.0 130 / 51016.6 5.4 4.5
2014-Dec-14 16:00N 52°12' W 128°06'0 0.0 290 / 41016.2 5.7 5.5
2014-Dec-14 15:00N 52°12' W 128°06'0 0.0 060 / 31016.9 5.9 5.2
2014-Dec-14 13:00N 52°12' W 128°06'0 0.0 080 / 11018.3 5.8 5.3
2014-Dec-14 12:00N 52°12' W 128°06'0 0.0 110 / 31018.9 6.0 5.1
2014-Dec-14 11:00N 52°12' W 128°06'0 0.0 110 / 41019.2 6.1 5.5
2014-Dec-14 10:00N 52°12' W 128°06'0 0.0 140 / 71019.4 6.3 6.1
2014-Dec-14 09:00N 52°12' W 128°06'0 0.0 120 / 21020.0 5.6 5.5
2014-Dec-14 08:00N 52°12' W 128°06'0 0.0 120 / 41020.6 5.3 5.2
2014-Dec-14 07:00N 52°12' W 128°06'0 0.0 140 / 121020.4 5.7 5.6
2014-Dec-14 06:00N 52°12' W 128°06'0 0.0 140 / 81020.4 5.9 5.8
2014-Dec-14 05:00N 52°12' W 128°06'0 0.0 160 / 51020.4 6.1 6.0
2014-Dec-14 04:00N 52°12' W 128°06'0 0.0 150 / 21020.7 6.3 6.2
2014-Dec-14 03:00N 52°12' W 128°06'   130 / 121020.3 6.2 6.1
Track history (hours):
 
Tides and Currents Weather Stations Pressure Air Temp Water Temp Dewpoint Dewpoint Depression Visibility Wind Speed Wind Dir Waves Ship Positions

Gordon Reid

Last reported at 2014-Dec-22 09:29 UTC. Time now 2014-Dec-22 12:03 UTC.
Position N 50°55' W 127°50'.

Length 49.95 m; beam 11 m; draft 5.4 m.

Type: SAR. MMSI: 316094000.

Date/timePositionNaut miles runAvg speedWind from/ knotsBaromVisibWave heightAir tempDewpointWater temp
2014-Dec-22 09:29N 50°55' W 127°50'0 0.0
2014-Dec-22 06:29N 50°55' W 127°50'0 0.0
2014-Dec-22 04:29N 50°55' W 127°50'0 0.0
2014-Dec-22 02:26N 50°55' W 127°50'0 0.0
2014-Dec-21 17:32N 50°55' W 127°50'0 0.0
2014-Dec-21 16:26N 50°55' W 127°50'2 0.1
2014-Dec-20 21:33N 50°57' W 127°51'6 2.8
2014-Dec-20 19:25N 50°57' W 128°01'2 1.8
2014-Dec-20 18:30N 50°57' W 128°03'4 1.3
2014-Dec-20 15:33N 50°53' W 128°03'0 0.2
2014-Dec-20 14:26N 50°53' W 128°03'1 0.0
2014-Dec-19 06:18N 50°53' W 128°01'1 0.2
2014-Dec-19 03:30N 50°53' W 128°01'7 7.2
2014-Dec-19 02:33N 50°52' W 127°51'0 0.4
2014-Dec-19 01:33N 50°52' W 127°50'10 1.9
2014-Dec-18 20:10N 50°58' W 128°03'2 3.9
2014-Dec-18 19:33N 50°57' W 127°59'2 2.0
2014-Dec-18 18:32N 50°56' W 127°56'0 0.1
2014-Dec-18 17:24N 50°56' W 127°57'3 2.7
2014-Dec-18 16:27N 50°56' W 128°00'6 0.5
2014-Dec-18 04:07N 50°53' W 127°53'611.2
2014-Dec-18 03:33N 50°50' W 127°43'1010.4
2014-Dec-18 02:33N 50°46' W 127°28'2 0.3
2014-Dec-17 19:33N 50°43' W 127°29'1 0.7
2014-Dec-17 18:28N 50°43' W 127°28'0 0.0
2014-Dec-17 17:28N 50°43' W 127°28'0 0.1
2014-Dec-17 16:33N 50°43' W 127°28'9 9.1
2014-Dec-17 15:33N 50°49' W 127°38'2 1.9
2014-Dec-17 14:33N 50°51' W 127°40'0 0.0
2014-Dec-17 13:33N 50°51' W 127°40'0 0.0
2014-Dec-17 12:33N 50°51' W 127°40'0 0.0
2014-Dec-17 11:27N 50°51' W 127°40'0 0.0
2014-Dec-17 10:33N 50°51' W 127°40'0 0.0
2014-Dec-17 09:33N 50°51' W 127°40'0 0.0
2014-Dec-17 08:27N 50°51' W 127°40'0 0.0
2014-Dec-17 07:27N 50°51' W 127°40'0 0.0
2014-Dec-17 06:33N 50°51' W 127°40'0 0.0
2014-Dec-17 05:27N 50°51' W 127°40'0 0.0
2014-Dec-17 04:33N 50°51' W 127°40'0 0.0
2014-Dec-17 03:21N 50°51' W 127°40'0 0.0
2014-Dec-17 02:33N 50°51' W 127°40'0 0.0
2014-Dec-17 01:33N 50°51' W 127°40'0 0.0
2014-Dec-17 00:33N 50°51' W 127°40'0 0.0
2014-Dec-16 23:33N 50°51' W 127°40'1 1.5
2014-Dec-16 22:33N 50°53' W 127°39'9 8.9
2014-Dec-16 21:32N 51°02' W 127°37'6 6.4
2014-Dec-16 20:33N 51°05' W 127°45'9 8.2
2014-Dec-16 19:30N 51°12' W 127°54'12 0.6
2014-Dec-16 00:00N 51°24' W 127°48'0 0.0 140 / 171006.4 9.5 7.410.3
2014-Dec-15 23:00N 51°24' W 127°48'0 0.0 160 / 121006.3 10.0 6.710.1
2014-Dec-15 22:00N 51°24' W 127°48'6 6.0 150 / 151005.8 11.5 6.410.1
2014-Dec-15 21:00N 51°30' W 127°48'7 7.1 170 / 141005.8 11.4 6.8 9.4
2014-Dec-15 20:00N 51°36' W 127°54'10 9.6 170 / 31006.3 6.2 6.1 8.7
2014-Dec-15 19:00N 51°42' W 128°06'0 0.0 110 / 81006.1 7.9 5.7
2014-Dec-15 18:00N 51°42' W 128°06'0 0.0 100 / 101005.9 6.1 5.1
2014-Dec-15 17:00N 51°42' W 128°06'0 0.0 070 / 21006.0 6.0 4.0
2014-Dec-15 16:00N 51°42' W 128°06'0 0.0 030 / 31006.1 5.1 4.1
2014-Dec-15 15:00N 51°42' W 128°06'0 0.0 030 / 21006.5 4.9 4.3
2014-Dec-15 14:00N 51°42' W 128°06'0 0.0 040 / 41007.0 4.7 4.0
2014-Dec-15 13:00N 51°42' W 128°06'0 0.0 040 / 51007.4 5.2 3.9
2014-Dec-15 12:00N 51°42' W 128°06'0 0.0 020 / 51008.0 4.7 3.9
2014-Dec-15 11:00N 51°42' W 128°06'0 0.0 050 / 31008.7 5.2 4.1
2014-Dec-15 10:00N 51°42' W 128°06'0 0.0 010 / 31009.2 5.1 4.5
2014-Dec-15 09:00N 51°42' W 128°06'0 0.0 020 / 31009.7 6.0 4.9
2014-Dec-15 08:00N 51°42' W 128°06'0 0.0 100 / 101010.2 6.9 6.1
2014-Dec-15 07:00N 51°42' W 128°06'0 0.0 020 / 31010.8 6.0 5.3
2014-Dec-15 06:00N 51°42' W 128°06'0 0.0 040 / 41011.2 5.8 5.1
2014-Dec-15 05:00N 51°42' W 128°06'0 0.0 020 / 21011.3 5.4 5.0
2014-Dec-15 04:00N 51°42' W 128°06'0 0.0 010 / 51011.5 5.9 5.5
2014-Dec-15 03:00N 51°42' W 128°06'0 0.0 360 / 51011.7 5.9 5.4
2014-Dec-15 02:00N 51°42' W 128°06'0 0.0 040 / 21012.2 6.1 6.0
2014-Dec-15 01:00N 51°42' W 128°06'0 0.0 120 / 11013.0 6.2 6.1
2014-Dec-15 00:00N 51°42' W 128°06'0 0.0 350 / 21013.4 6.8 6.7 9.8
2014-Dec-14 23:00N 51°42' W 128°06'0 0.0 010 / 21014.0 7.6 7.3 9.6
2014-Dec-14 22:00N 51°42' W 128°06'4 3.7 020 / 21014.6 8.4 7.3 9.8
2014-Dec-14 21:00N 51°42' W 128°00'7 7.1 100 / 71015.6 6.8 6.4 9.3
2014-Dec-14 20:00N 51°48' W 127°54'1212.0 040 / 81016.2 7.1 5.3 8.9
2014-Dec-14 19:00N 52°00' W 127°54'10 9.5 270 / 21016.5 7.0 5.9 9.2
2014-Dec-14 18:00N 52°06' W 128°06'6 6.0 020 / 21016.7 7.0 4.3 9.0
2014-Dec-14 17:00N 52°12' W 128°06'0 0.0 130 / 51016.6 5.4 4.5
2014-Dec-14 16:00N 52°12' W 128°06'0 0.0 290 / 41016.2 5.7 5.5
2014-Dec-14 15:00N 52°12' W 128°06'0 0.0 060 / 31016.9 5.9 5.2
2014-Dec-14 13:00N 52°12' W 128°06'0 0.0 080 / 11018.3 5.8 5.3
2014-Dec-14 12:00N 52°12' W 128°06'0 0.0 110 / 31018.9 6.0 5.1
2014-Dec-14 11:00N 52°12' W 128°06'0 0.0 110 / 41019.2 6.1 5.5
2014-Dec-14 10:00N 52°12' W 128°06'0 0.0 140 / 71019.4 6.3 6.1
2014-Dec-14 09:00N 52°12' W 128°06'0 0.0 120 / 21020.0 5.6 5.5
2014-Dec-14 08:00N 52°12' W 128°06'0 0.0 120 / 41020.6 5.3 5.2
2014-Dec-14 07:00N 52°12' W 128°06'0 0.0 140 / 121020.4 5.7 5.6
2014-Dec-14 06:00N 52°12' W 128°06'0 0.0 140 / 81020.4 5.9 5.8
2014-Dec-14 05:00N 52°12' W 128°06'0 0.0 160 / 51020.4 6.1 6.0
2014-Dec-14 04:00N 52°12' W 128°06'0 0.0 150 / 21020.7 6.3 6.2
2014-Dec-14 03:00N 52°12' W 128°06'   130 / 121020.3 6.2 6.1

Dump ship's entire track history